sensor_id;sensor_type;location;lat;lon;timestamp;P1;durP1;ratioP1;P2;durP2;ratioP2
64950;SDS011;51482;47.014;7.652;2023-04-06T00:00:52;11.70;;;10.10;;
64950;SDS011;51482;47.014;7.652;2023-04-06T00:03:17;9.43;;;7.73;;
64950;SDS011;51482;47.014;7.652;2023-04-06T00:05:44;11.40;;;10.30;;
64950;SDS011;51482;47.014;7.652;2023-04-06T00:08:10;8.43;;;7.63;;
64950;SDS011;51482;47.014;7.652;2023-04-06T00:10:36;10.50;;;9.47;;
64950;SDS011;51482;47.014;7.652;2023-04-06T00:13:01;8.80;;;7.30;;
64950;SDS011;51482;47.014;7.652;2023-04-06T00:15:27;9.37;;;7.80;;
64950;SDS011;51482;47.014;7.652;2023-04-06T00:17:52;9.43;;;8.53;;
64950;SDS011;51482;47.014;7.652;2023-04-06T00:20:18;8.93;;;7.30;;
64950;SDS011;51482;47.014;7.652;2023-04-06T00:22:44;12.87;;;11.60;;
64950;SDS011;51482;47.014;7.652;2023-04-06T00:25:10;9.60;;;7.93;;
64950;SDS011;51482;47.014;7.652;2023-04-06T00:27:36;13.77;;;11.13;;
64950;SDS011;51482;47.014;7.652;2023-04-06T00:30:03;9.87;;;8.23;;
64950;SDS011;51482;47.014;7.652;2023-04-06T00:32:30;12.07;;;8.50;;
64950;SDS011;51482;47.014;7.652;2023-04-06T00:34:56;10.50;;;8.70;;
64950;SDS011;51482;47.014;7.652;2023-04-06T00:37:21;9.43;;;7.47;;
64950;SDS011;51482;47.014;7.652;2023-04-06T00:39:47;11.40;;;10.40;;
64950;SDS011;51482;47.014;7.652;2023-04-06T00:42:13;11.03;;;8.87;;
64950;SDS011;51482;47.014;7.652;2023-04-06T00:44:40;13.20;;;11.80;;
64950;SDS011;51482;47.014;7.652;2023-04-06T00:47:06;12.47;;;8.63;;
64950;SDS011;51482;47.014;7.652;2023-04-06T00:49:32;11.63;;;9.17;;
64950;SDS011;51482;47.014;7.652;2023-04-06T00:51:59;10.13;;;8.97;;
64950;SDS011;51482;47.014;7.652;2023-04-06T00:54:25;12.30;;;8.53;;
64950;SDS011;51482;47.014;7.652;2023-04-06T00:56:50;12.17;;;10.43;;
64950;SDS011;51482;47.014;7.652;2023-04-06T00:59:16;11.40;;;7.90;;
64950;SDS011;51482;47.014;7.652;2023-04-06T01:01:42;12.80;;;11.40;;
64950;SDS011;51482;47.014;7.652;2023-04-06T01:04:07;11.97;;;10.67;;
64950;SDS011;51482;47.014;7.652;2023-04-06T01:06:33;11.07;;;9.07;;
64950;SDS011;51482;47.014;7.652;2023-04-06T01:08:59;10.70;;;9.23;;
64950;SDS011;51482;47.014;7.652;2023-04-06T01:11:24;12.13;;;9.20;;
64950;SDS011;51482;47.014;7.652;2023-04-06T01:13:51;12.60;;;11.20;;
64950;SDS011;51482;47.014;7.652;2023-04-06T01:16:17;11.53;;;8.40;;
64950;SDS011;51482;47.014;7.652;2023-04-06T01:18:42;11.40;;;10.37;;
64950;SDS011;51482;47.014;7.652;2023-04-06T01:21:08;12.57;;;9.43;;
64950;SDS011;51482;47.014;7.652;2023-04-06T01:23:40;12.23;;;11.23;;
64950;SDS011;51482;47.014;7.652;2023-04-06T01:26:10;10.43;;;7.60;;
64950;SDS011;51482;47.014;7.652;2023-04-06T01:28:35;10.93;;;9.70;;
64950;SDS011;51482;47.014;7.652;2023-04-06T01:31:02;9.93;;;7.63;;
64950;SDS011;51482;47.014;7.652;2023-04-06T01:33:28;9.47;;;7.73;;
64950;SDS011;51482;47.014;7.652;2023-04-06T01:35:53;12.07;;;10.07;;
64950;SDS011;51482;47.014;7.652;2023-04-06T01:38:19;11.70;;;9.13;;
64950;SDS011;51482;47.014;7.652;2023-04-06T01:40:45;12.17;;;11.07;;
64950;SDS011;51482;47.014;7.652;2023-04-06T01:43:11;9.20;;;7.83;;
64950;SDS011;51482;47.014;7.652;2023-04-06T01:45:36;13.03;;;11.73;;
64950;SDS011;51482;47.014;7.652;2023-04-06T01:48:02;9.27;;;8.23;;
64950;SDS011;51482;47.014;7.652;2023-04-06T01:50:28;8.60;;;7.50;;
64950;SDS011;51482;47.014;7.652;2023-04-06T01:52:53;9.83;;;8.00;;
64950;SDS011;51482;47.014;7.652;2023-04-06T01:55:19;11.37;;;8.60;;
64950;SDS011;51482;47.014;7.652;2023-04-06T01:57:45;12.73;;;11.53;;
64950;SDS011;51482;47.014;7.652;2023-04-06T02:00:11;10.63;;;8.63;;
64950;SDS011;51482;47.014;7.652;2023-04-06T02:02:37;11.87;;;10.33;;
64950;SDS011;51482;47.014;7.652;2023-04-06T02:05:03;11.03;;;8.60;;
64950;SDS011;51482;47.014;7.652;2023-04-06T02:07:28;11.70;;;7.83;;
64950;SDS011;51482;47.014;7.652;2023-04-06T02:09:54;9.73;;;7.93;;
64950;SDS011;51482;47.014;7.652;2023-04-06T02:12:20;10.40;;;7.77;;
64950;SDS011;51482;47.014;7.652;2023-04-06T02:14:46;13.33;;;12.03;;
64950;SDS011;51482;47.014;7.652;2023-04-06T02:17:12;9.50;;;8.23;;
64950;SDS011;51482;47.014;7.652;2023-04-06T02:19:37;13.77;;;10.27;;
64950;SDS011;51482;47.014;7.652;2023-04-06T02:22:03;10.43;;;8.50;;
64950;SDS011;51482;47.014;7.652;2023-04-06T02:24:28;10.40;;;8.20;;
64950;SDS011;51482;47.014;7.652;2023-04-06T02:26:54;10.57;;;9.57;;
64950;SDS011;51482;47.014;7.652;2023-04-06T02:29:19;10.73;;;8.50;;
64950;SDS011;51482;47.014;7.652;2023-04-06T02:31:45;13.00;;;11.80;;
64950;SDS011;51482;47.014;7.652;2023-04-06T02:34:11;10.40;;;8.43;;
64950;SDS011;51482;47.014;7.652;2023-04-06T02:36:42;13.43;;;11.63;;
64950;SDS011;51482;47.014;7.652;2023-04-06T02:39:08;10.33;;;8.97;;
64950;SDS011;51482;47.014;7.652;2023-04-06T02:41:34;11.33;;;8.90;;
64950;SDS011;51482;47.014;7.652;2023-04-06T02:44:00;13.00;;;8.13;;
64950;SDS011;51482;47.014;7.652;2023-04-06T02:46:25;9.57;;;8.00;;
64950;SDS011;51482;47.014;7.652;2023-04-06T02:48:51;12.47;;;9.50;;
64950;SDS011;51482;47.014;7.652;2023-04-06T02:51:17;9.27;;;7.53;;
64950;SDS011;51482;47.014;7.652;2023-04-06T02:53:42;13.77;;;12.00;;
64950;SDS011;51482;47.014;7.652;2023-04-06T02:56:08;10.50;;;7.80;;
64950;SDS011;51482;47.014;7.652;2023-04-06T02:58:33;10.07;;;8.77;;
64950;SDS011;51482;47.014;7.652;2023-04-06T03:00:59;11.60;;;8.60;;
64950;SDS011;51482;47.014;7.652;2023-04-06T03:03:24;9.37;;;8.13;;
64950;SDS011;51482;47.014;7.652;2023-04-06T03:05:51;12.90;;;11.13;;
64950;SDS011;51482;47.014;7.652;2023-04-06T03:08:16;10.73;;;8.40;;
64950;SDS011;51482;47.014;7.652;2023-04-06T03:10:42;14.60;;;13.10;;
64950;SDS011;51482;47.014;7.652;2023-04-06T03:13:07;9.53;;;8.17;;
64950;SDS011;51482;47.014;7.652;2023-04-06T03:15:33;11.63;;;9.17;;
64950;SDS011;51482;47.014;7.652;2023-04-06T03:17:58;10.87;;;9.10;;
64950;SDS011;51482;47.014;7.652;2023-04-06T03:20:24;11.43;;;8.70;;
64950;SDS011;51482;47.014;7.652;2023-04-06T03:22:50;14.57;;;12.10;;
64950;SDS011;51482;47.014;7.652;2023-04-06T03:25:15;11.63;;;8.90;;
64950;SDS011;51482;47.014;7.652;2023-04-06T03:27:41;15.43;;;12.27;;
64950;SDS011;51482;47.014;7.652;2023-04-06T03:30:07;12.80;;;9.60;;
64950;SDS011;51482;47.014;7.652;2023-04-06T03:32:32;13.30;;;8.23;;
64950;SDS011;51482;47.014;7.652;2023-04-06T03:34:58;10.97;;;8.57;;
64950;SDS011;51482;47.014;7.652;2023-04-06T03:37:24;10.57;;;8.20;;
64950;SDS011;51482;47.014;7.652;2023-04-06T03:39:49;13.47;;;12.07;;
64950;SDS011;51482;47.014;7.652;2023-04-06T03:42:15;9.43;;;8.13;;
64950;SDS011;51482;47.014;7.652;2023-04-06T03:44:41;11.53;;;10.43;;
64950;SDS011;51482;47.014;7.652;2023-04-06T03:47:06;9.93;;;8.03;;
64950;SDS011;51482;47.014;7.652;2023-04-06T03:49:32;9.33;;;7.47;;
64950;SDS011;51482;47.014;7.652;2023-04-06T03:51:57;8.80;;;7.83;;
64950;SDS011;51482;47.014;7.652;2023-04-06T03:54:23;9.00;;;8.03;;
64950;SDS011;51482;47.014;7.652;2023-04-06T03:56:48;12.77;;;11.63;;
64950;SDS011;51482;47.014;7.652;2023-04-06T03:59:14;11.40;;;8.70;;
64950;SDS011;51482;47.014;7.652;2023-04-06T04:01:40;14.80;;;11.97;;
64950;SDS011;51482;47.014;7.652;2023-04-06T04:04:05;11.43;;;8.03;;
64950;SDS011;51482;47.014;7.652;2023-04-06T04:06:31;9.87;;;8.63;;
64950;SDS011;51482;47.014;7.652;2023-04-06T04:08:56;11.50;;;8.57;;
64950;SDS011;51482;47.014;7.652;2023-04-06T04:11:22;12.03;;;8.87;;
64950;SDS011;51482;47.014;7.652;2023-04-06T04:13:47;13.27;;;11.97;;
64950;SDS011;51482;47.014;7.652;2023-04-06T04:16:13;10.07;;;8.20;;
64950;SDS011;51482;47.014;7.652;2023-04-06T04:18:39;12.93;;;11.60;;
64950;SDS011;51482;47.014;7.652;2023-04-06T04:21:05;8.80;;;7.83;;
64950;SDS011;51482;47.014;7.652;2023-04-06T04:23:30;8.53;;;7.23;;
64950;SDS011;51482;47.014;7.652;2023-04-06T04:25:56;9.33;;;7.50;;
64950;SDS011;51482;47.014;7.652;2023-04-06T04:28:21;11.03;;;8.07;;
64950;SDS011;51482;47.014;7.652;2023-04-06T04:30:47;12.67;;;11.57;;
64950;SDS011;51482;47.014;7.652;2023-04-06T04:33:12;11.03;;;8.33;;
64950;SDS011;51482;47.014;7.652;2023-04-06T04:35:38;11.13;;;10.13;;
64950;SDS011;51482;47.014;7.652;2023-04-06T04:38:03;10.47;;;7.90;;
64950;SDS011;51482;47.014;7.652;2023-04-06T04:40:30;11.63;;;8.00;;
64950;SDS011;51482;47.014;7.652;2023-04-06T04:42:55;9.43;;;7.70;;
64950;SDS011;51482;47.014;7.652;2023-04-06T04:45:21;9.57;;;8.47;;
64950;SDS011;51482;47.014;7.652;2023-04-06T04:47:46;13.17;;;11.97;;
64950;SDS011;51482;47.014;7.652;2023-04-06T04:50:12;10.97;;;7.83;;
64950;SDS011;51482;47.014;7.652;2023-04-06T04:52:37;13.10;;;10.57;;
64950;SDS011;51482;47.014;7.652;2023-04-06T04:55:03;10.83;;;8.33;;
64950;SDS011;51482;47.014;7.652;2023-04-06T04:57:29;10.87;;;7.83;;
64950;SDS011;51482;47.014;7.652;2023-04-06T04:59:54;11.27;;;9.90;;
64950;SDS011;51482;47.014;7.652;2023-04-06T05:02:20;12.17;;;8.10;;
64950;SDS011;51482;47.014;7.652;2023-04-06T05:04:46;13.20;;;11.90;;
64950;SDS011;51482;47.014;7.652;2023-04-06T05:07:11;12.03;;;8.97;;
64950;SDS011;51482;47.014;7.652;2023-04-06T05:09:37;11.97;;;10.60;;
64950;SDS011;51482;47.014;7.652;2023-04-06T05:12:02;11.10;;;8.70;;
64950;SDS011;51482;47.014;7.652;2023-04-06T05:14:28;10.60;;;8.10;;
64950;SDS011;51482;47.014;7.652;2023-04-06T05:16:54;11.70;;;8.67;;
64950;SDS011;51482;47.014;7.652;2023-04-06T05:19:19;10.57;;;7.70;;
64950;SDS011;51482;47.014;7.652;2023-04-06T05:21:45;11.80;;;10.37;;
64950;SDS011;51482;47.014;7.652;2023-04-06T05:24:11;10.33;;;8.40;;
64950;SDS011;51482;47.014;7.652;2023-04-06T05:26:36;11.57;;;9.97;;
64950;SDS011;51482;47.014;7.652;2023-04-06T05:29:02;11.50;;;8.90;;
64950;SDS011;51482;47.014;7.652;2023-04-06T05:31:28;9.37;;;7.10;;
64950;SDS011;51482;47.014;7.652;2023-04-06T05:33:54;9.27;;;7.83;;
64950;SDS011;51482;47.014;7.652;2023-04-06T05:36:20;10.13;;;8.53;;
64950;SDS011;51482;47.014;7.652;2023-04-06T05:38:46;12.47;;;11.30;;
64950;SDS011;51482;47.014;7.652;2023-04-06T05:41:12;10.83;;;7.27;;
64950;SDS011;51482;47.014;7.652;2023-04-06T05:43:37;14.17;;;10.33;;
64950;SDS011;51482;47.014;7.652;2023-04-06T05:46:03;13.37;;;8.00;;
64950;SDS011;51482;47.014;7.652;2023-04-06T05:48:29;8.70;;;7.27;;
64950;SDS011;51482;47.014;7.652;2023-04-06T05:50:55;13.07;;;7.33;;
64950;SDS011;51482;47.014;7.652;2023-04-06T05:53:20;11.40;;;8.47;;
64950;SDS011;51482;47.014;7.652;2023-04-06T05:55:46;16.47;;;12.67;;
64950;SDS011;51482;47.014;7.652;2023-04-06T05:58:12;10.57;;;8.30;;
64950;SDS011;51482;47.014;7.652;2023-04-06T06:00:38;18.77;;;11.87;;
64950;SDS011;51482;47.014;7.652;2023-04-06T06:03:03;11.37;;;7.90;;
64950;SDS011;51482;47.014;7.652;2023-04-06T06:05:30;10.90;;;7.97;;
64950;SDS011;51482;47.014;7.652;2023-04-06T06:07:56;14.33;;;8.60;;
64950;SDS011;51482;47.014;7.652;2023-04-06T06:10:22;13.63;;;8.97;;
64950;SDS011;51482;47.014;7.652;2023-04-06T06:12:47;14.93;;;11.83;;
64950;SDS011;51482;47.014;7.652;2023-04-06T06:15:13;10.27;;;8.40;;
64950;SDS011;51482;47.014;7.652;2023-04-06T06:17:38;14.50;;;11.23;;
64950;SDS011;51482;47.014;7.652;2023-04-06T06:20:07;12.40;;;9.07;;
64950;SDS011;51482;47.014;7.652;2023-04-06T06:22:33;16.33;;;9.60;;
64950;SDS011;51482;47.014;7.652;2023-04-06T06:24:58;15.63;;;8.83;;
64950;SDS011;51482;47.014;7.652;2023-04-06T06:27:24;13.03;;;8.37;;
64950;SDS011;51482;47.014;7.652;2023-04-06T06:29:49;13.60;;;10.83;;
64950;SDS011;51482;47.014;7.652;2023-04-06T06:32:15;10.97;;;8.07;;
64950;SDS011;51482;47.014;7.652;2023-04-06T06:34:41;13.67;;;11.27;;
64950;SDS011;51482;47.014;7.652;2023-04-06T06:37:06;13.73;;;8.70;;
64950;SDS011;51482;47.014;7.652;2023-04-06T06:39:32;11.10;;;8.10;;
64950;SDS011;51482;47.014;7.652;2023-04-06T06:41:57;9.47;;;8.47;;
64950;SDS011;51482;47.014;7.652;2023-04-06T06:44:26;9.40;;;7.53;;
64950;SDS011;51482;47.014;7.652;2023-04-06T06:46:51;10.50;;;9.37;;
64950;SDS011;51482;47.014;7.652;2023-04-06T06:49:17;9.63;;;7.57;;
64950;SDS011;51482;47.014;7.652;2023-04-06T06:51:43;13.27;;;11.83;;
64950;SDS011;51482;47.014;7.652;2023-04-06T06:54:10;9.97;;;8.57;;
64950;SDS011;51482;47.014;7.652;2023-04-06T06:56:36;10.50;;;9.57;;
64950;SDS011;51482;47.014;7.652;2023-04-06T06:59:03;12.47;;;7.23;;
64950;SDS011;51482;47.014;7.652;2023-04-06T07:01:29;8.90;;;7.17;;
64950;SDS011;51482;47.014;7.652;2023-04-06T07:03:54;9.60;;;7.70;;
64950;SDS011;51482;47.014;7.652;2023-04-06T07:06:20;12.00;;;7.80;;
64950;SDS011;51482;47.014;7.652;2023-04-06T07:08:46;12.23;;;10.97;;
64950;SDS011;51482;47.014;7.652;2023-04-06T07:11:11;10.97;;;7.63;;
64950;SDS011;51482;47.014;7.652;2023-04-06T07:13:37;11.70;;;10.57;;
64950;SDS011;51482;47.014;7.652;2023-04-06T07:16:02;9.07;;;6.87;;
64950;SDS011;51482;47.014;7.652;2023-04-06T07:18:28;9.53;;;7.47;;
64950;SDS011;51482;47.014;7.652;2023-04-06T07:20:54;8.00;;;6.80;;
64950;SDS011;51482;47.014;7.652;2023-04-06T07:23:20;7.83;;;6.23;;
64950;SDS011;51482;47.014;7.652;2023-04-06T07:25:45;11.50;;;10.30;;
64950;SDS011;51482;47.014;7.652;2023-04-06T07:28:11;9.53;;;6.50;;
64950;SDS011;51482;47.014;7.652;2023-04-06T07:30:37;9.90;;;9.10;;
64950;SDS011;51482;47.014;7.652;2023-04-06T07:33:03;8.13;;;7.07;;
64950;SDS011;51482;47.014;7.652;2023-04-06T07:35:30;8.93;;;6.90;;
64950;SDS011;51482;47.014;7.652;2023-04-06T07:37:56;8.27;;;7.03;;
64950;SDS011;51482;47.014;7.652;2023-04-06T07:40:22;8.50;;;7.20;;
64950;SDS011;51482;47.014;7.652;2023-04-06T07:42:47;10.83;;;9.83;;
64950;SDS011;51482;47.014;7.652;2023-04-06T07:45:13;7.70;;;6.97;;
64950;SDS011;51482;47.014;7.652;2023-04-06T07:47:40;10.03;;;9.10;;
64950;SDS011;51482;47.014;7.652;2023-04-06T07:50:07;8.07;;;6.63;;
64950;SDS011;51482;47.014;7.652;2023-04-06T07:52:33;11.00;;;7.93;;
64950;SDS011;51482;47.014;7.652;2023-04-06T07:54:59;9.30;;;7.10;;
64950;SDS011;51482;47.014;7.652;2023-04-06T07:57:24;8.53;;;6.53;;
64950;SDS011;51482;47.014;7.652;2023-04-06T07:59:50;8.47;;;7.67;;
64950;SDS011;51482;47.014;7.652;2023-04-06T08:02:15;7.80;;;5.53;;
64950;SDS011;51482;47.014;7.652;2023-04-06T08:04:41;9.93;;;9.03;;
64950;SDS011;51482;47.014;7.652;2023-04-06T08:07:07;8.07;;;6.60;;
64950;SDS011;51482;47.014;7.652;2023-04-06T08:09:33;8.57;;;6.47;;
64950;SDS011;51482;47.014;7.652;2023-04-06T08:11:58;6.90;;;6.10;;
64950;SDS011;51482;47.014;7.652;2023-04-06T08:14:24;9.20;;;5.73;;
64950;SDS011;51482;47.014;7.652;2023-04-06T08:16:49;9.83;;;7.53;;
64950;SDS011;51482;47.014;7.652;2023-04-06T08:19:15;7.90;;;6.20;;
64950;SDS011;51482;47.014;7.652;2023-04-06T08:21:42;8.50;;;7.70;;
64950;SDS011;51482;47.014;7.652;2023-04-06T08:24:08;7.27;;;6.23;;
64950;SDS011;51482;47.014;7.652;2023-04-06T08:26:34;7.10;;;6.40;;
64950;SDS011;51482;47.014;7.652;2023-04-06T08:29:00;6.87;;;5.53;;
64950;SDS011;51482;47.014;7.652;2023-04-06T08:31:25;8.53;;;5.73;;
64950;SDS011;51482;47.014;7.652;2023-04-06T08:33:51;7.97;;;7.27;;
64950;SDS011;51482;47.014;7.652;2023-04-06T08:36:16;8.80;;;6.23;;
64950;SDS011;51482;47.014;7.652;2023-04-06T08:38:47;9.33;;;8.43;;
64950;SDS011;51482;47.014;7.652;2023-04-06T08:41:13;7.30;;;6.00;;
64950;SDS011;51482;47.014;7.652;2023-04-06T08:43:45;8.67;;;7.97;;
64950;SDS011;51482;47.014;7.652;2023-04-06T08:46:12;7.90;;;6.07;;
64950;SDS011;51482;47.014;7.652;2023-04-06T08:48:40;8.87;;;8.07;;
64950;SDS011;51482;47.014;7.652;2023-04-06T08:51:06;7.57;;;6.47;;
64950;SDS011;51482;47.014;7.652;2023-04-06T08:53:33;7.43;;;5.83;;
64950;SDS011;51482;47.014;7.652;2023-04-06T08:55:59;6.40;;;5.53;;
64950;SDS011;51482;47.014;7.652;2023-04-06T08:58:26;5.67;;;4.87;;
64950;SDS011;51482;47.014;7.652;2023-04-06T09:00:55;6.70;;;5.37;;
64950;SDS011;51482;47.014;7.652;2023-04-06T09:03:21;5.67;;;5.17;;
64950;SDS011;51482;47.014;7.652;2023-04-06T09:05:48;8.90;;;7.50;;
64950;SDS011;51482;47.014;7.652;2023-04-06T09:08:14;6.20;;;5.47;;
64950;SDS011;51482;47.014;7.652;2023-04-06T09:10:40;8.87;;;7.97;;
64950;SDS011;51482;47.014;7.652;2023-04-06T09:13:06;6.50;;;5.87;;
64950;SDS011;51482;47.014;7.652;2023-04-06T09:15:33;6.70;;;6.10;;
64950;SDS011;51482;47.014;7.652;2023-04-06T09:17:59;6.27;;;5.67;;
64950;SDS011;51482;47.014;7.652;2023-04-06T09:20:25;7.37;;;4.90;;
64950;SDS011;51482;47.014;7.652;2023-04-06T09:22:52;7.40;;;6.70;;
64950;SDS011;51482;47.014;7.652;2023-04-06T09:25:19;7.23;;;5.53;;
64950;SDS011;51482;47.014;7.652;2023-04-06T09:27:46;7.63;;;6.93;;
64950;SDS011;51482;47.014;7.652;2023-04-06T09:30:12;7.70;;;6.00;;
64950;SDS011;51482;47.014;7.652;2023-04-06T09:32:51;8.43;;;7.73;;
64950;SDS011;51482;47.014;7.652;2023-04-06T09:35:19;6.53;;;5.83;;
64950;SDS011;51482;47.014;7.652;2023-04-06T09:37:45;7.83;;;7.20;;
64950;SDS011;51482;47.014;7.652;2023-04-06T09:40:12;5.83;;;5.23;;
64950;SDS011;51482;47.014;7.652;2023-04-06T09:42:41;7.70;;;7.00;;
64950;SDS011;51482;47.014;7.652;2023-04-06T09:45:07;5.90;;;5.37;;
64950;SDS011;51482;47.014;7.652;2023-04-06T09:47:35;6.63;;;5.73;;
64950;SDS011;51482;47.014;7.652;2023-04-06T09:50:01;6.07;;;5.47;;
64950;SDS011;51482;47.014;7.652;2023-04-06T09:52:32;6.73;;;5.47;;
64950;SDS011;51482;47.014;7.652;2023-04-06T09:55:01;7.47;;;5.60;;
64950;SDS011;51482;47.014;7.652;2023-04-06T09:57:30;8.97;;;6.07;;
64950;SDS011;51482;47.014;7.652;2023-04-06T10:07:48;8.47;;;7.70;;
64950;SDS011;51482;47.014;7.652;2023-04-06T10:10:15;5.60;;;4.97;;
64950;SDS011;51482;47.014;7.652;2023-04-06T10:12:41;7.82;;;7.13;;
64950;SDS011;51482;47.014;7.652;2023-04-06T10:15:08;6.22;;;5.07;;
64950;SDS011;51482;47.014;7.652;2023-04-06T10:17:34;7.85;;;5.75;;
64950;SDS011;51482;47.014;7.652;2023-04-06T10:20:02;7.20;;;5.13;;
64950;SDS011;51482;47.014;7.652;2023-04-06T10:23:03;7.88;;;7.25;;
64950;SDS011;51482;47.014;7.652;2023-04-06T10:25:33;6.55;;;5.70;;
64950;SDS011;51482;47.014;7.652;2023-04-06T10:28:02;5.40;;;4.90;;
64950;SDS011;51482;47.014;7.652;2023-04-06T10:30:31;6.60;;;5.38;;
64950;SDS011;51482;47.014;7.652;2023-04-06T10:33:16;7.05;;;6.43;;
64950;SDS011;51482;47.014;7.652;2023-04-06T10:35:44;8.45;;;7.85;;
64950;SDS011;51482;47.014;7.652;2023-04-06T10:38:10;6.82;;;6.10;;
64950;SDS011;51482;47.014;7.652;2023-04-06T10:40:39;8.23;;;7.43;;
64950;SDS011;51482;47.014;7.652;2023-04-06T10:45:43;8.82;;;8.15;;
64950;SDS011;51482;47.014;7.652;2023-04-06T10:48:13;6.22;;;5.63;;
64950;SDS011;51482;47.014;7.652;2023-04-06T10:50:49;8.82;;;7.85;;
64950;SDS011;51482;47.014;7.652;2023-04-06T10:55:52;8.52;;;7.82;;
64950;SDS011;51482;47.014;7.652;2023-04-06T10:58:24;5.90;;;5.40;;
64950;SDS011;51482;47.014;7.652;2023-04-06T11:00:51;7.47;;;6.78;;
64950;SDS011;51482;47.014;7.652;2023-04-06T11:03:17;7.15;;;5.93;;
64950;SDS011;51482;47.014;7.652;2023-04-06T11:05:43;7.82;;;7.22;;
64950;SDS011;51482;47.014;7.652;2023-04-06T11:08:09;6.75;;;5.30;;
64950;SDS011;51482;47.014;7.652;2023-04-06T11:10:35;6.65;;;5.93;;
64950;SDS011;51482;47.014;7.652;2023-04-06T11:13:01;6.35;;;5.47;;
64950;SDS011;51482;47.014;7.652;2023-04-06T11:15:33;6.30;;;5.25;;
64950;SDS011;51482;47.014;7.652;2023-04-06T11:18:02;5.57;;;4.75;;
64950;SDS011;51482;47.014;7.652;2023-04-06T11:20:29;6.15;;;4.70;;
64950;SDS011;51482;47.014;7.652;2023-04-06T11:22:55;5.63;;;4.57;;
64950;SDS011;51482;47.014;7.652;2023-04-06T11:25:21;5.22;;;4.35;;
64950;SDS011;51482;47.014;7.652;2023-04-06T11:27:46;6.50;;;5.97;;
64950;SDS011;51482;47.014;7.652;2023-04-06T11:30:13;5.05;;;4.40;;
64950;SDS011;51482;47.014;7.652;2023-04-06T11:32:40;6.63;;;6.13;;
64950;SDS011;51482;47.014;7.652;2023-04-06T11:35:11;5.40;;;4.18;;
64950;SDS011;51482;47.014;7.652;2023-04-06T11:37:48;6.70;;;6.20;;
64950;SDS011;51482;47.014;7.652;2023-04-06T11:40:14;5.35;;;4.85;;
64950;SDS011;51482;47.014;7.652;2023-04-06T11:42:40;7.40;;;6.72;;
64950;SDS011;51482;47.014;7.652;2023-04-06T11:45:06;6.03;;;5.53;;
64950;SDS011;51482;47.014;7.652;2023-04-06T11:47:34;5.60;;;4.72;;
64950;SDS011;51482;47.014;7.652;2023-04-06T11:50:08;5.05;;;4.63;;
64950;SDS011;51482;47.014;7.652;2023-04-06T11:52:35;6.95;;;4.70;;
64950;SDS011;51482;47.014;7.652;2023-04-06T11:55:10;5.55;;;4.82;;
64950;SDS011;51482;47.014;7.652;2023-04-06T11:57:40;7.38;;;6.72;;
64950;SDS011;51482;47.014;7.652;2023-04-06T12:00:09;5.35;;;4.95;;
64950;SDS011;51482;47.014;7.652;2023-04-06T12:02:36;6.20;;;5.63;;
64950;SDS011;51482;47.014;7.652;2023-04-06T12:05:03;5.18;;;4.68;;
64950;SDS011;51482;47.014;7.652;2023-04-06T12:07:30;5.32;;;4.82;;
64950;SDS011;51482;47.014;7.652;2023-04-06T12:09:56;6.28;;;5.68;;
64950;SDS011;51482;47.014;7.652;2023-04-06T12:12:21;5.65;;;4.75;;
64950;SDS011;51482;47.014;7.652;2023-04-06T12:14:47;8.00;;;7.15;;
64950;SDS011;51482;47.014;7.652;2023-04-06T12:17:12;6.82;;;4.82;;
64950;SDS011;51482;47.014;7.652;2023-04-06T12:19:38;7.45;;;6.85;;
64950;SDS011;51482;47.014;7.652;2023-04-06T12:22:03;5.90;;;5.07;;
64950;SDS011;51482;47.014;7.652;2023-04-06T12:24:30;5.53;;;5.00;;
64950;SDS011;51482;47.014;7.652;2023-04-06T12:26:55;6.10;;;4.78;;
64950;SDS011;51482;47.014;7.652;2023-04-06T12:29:22;5.00;;;4.60;;
64950;SDS011;51482;47.014;7.652;2023-04-06T12:31:49;7.30;;;6.70;;
64950;SDS011;51482;47.014;7.652;2023-04-06T12:34:15;5.07;;;4.57;;
64950;SDS011;51482;47.014;7.652;2023-04-06T12:36:41;6.78;;;6.18;;
64950;SDS011;51482;47.014;7.652;2023-04-06T12:39:07;5.00;;;4.53;;
64950;SDS011;51482;47.014;7.652;2023-04-06T12:41:33;4.00;;;3.70;;
64950;SDS011;51482;47.014;7.652;2023-04-06T12:43:59;3.67;;;3.38;;
64950;SDS011;51482;47.014;7.652;2023-04-06T12:46:24;3.92;;;3.20;;
64950;SDS011;51482;47.014;7.652;2023-04-06T12:48:51;5.18;;;4.78;;
64950;SDS011;51482;47.014;7.652;2023-04-06T12:51:20;4.40;;;3.55;;
64950;SDS011;51482;47.014;7.652;2023-04-06T12:53:46;5.32;;;5.03;;
64950;SDS011;51482;47.014;7.652;2023-04-06T12:56:13;2.97;;;2.70;;
64950;SDS011;51482;47.014;7.652;2023-04-06T12:58:44;5.00;;;4.65;;
64950;SDS011;51482;47.014;7.652;2023-04-06T13:01:10;3.00;;;2.80;;
64950;SDS011;51482;47.014;7.652;2023-04-06T13:03:37;4.57;;;4.38;;
64950;SDS011;51482;47.014;7.652;2023-04-06T13:06:03;3.30;;;3.10;;
64950;SDS011;51482;47.014;7.652;2023-04-06T13:08:29;2.30;;;2.17;;
64950;SDS011;51482;47.014;7.652;2023-04-06T13:10:55;3.50;;;2.00;;
64950;SDS011;51482;47.014;7.652;2023-04-06T13:13:25;3.00;;;2.70;;
64950;SDS011;51482;47.014;7.652;2023-04-06T13:15:52;4.38;;;4.18;;
64950;SDS011;51482;47.014;7.652;2023-04-06T13:18:18;3.67;;;3.38;;
64950;SDS011;51482;47.014;7.652;2023-04-06T13:20:46;4.53;;;4.30;;
64950;SDS011;51482;47.014;7.652;2023-04-06T13:23:12;3.28;;;2.50;;
64950;SDS011;51482;47.014;7.652;2023-04-06T13:25:38;6.53;;;5.85;;
64950;SDS011;51482;47.014;7.652;2023-04-06T13:28:03;4.15;;;3.85;;
64950;SDS011;51482;47.014;7.652;2023-04-06T13:30:29;4.82;;;3.90;;
64950;SDS011;51482;47.014;7.652;2023-04-06T13:32:55;3.80;;;3.50;;
64950;SDS011;51482;47.014;7.652;2023-04-06T13:35:21;3.72;;;3.42;;
64950;SDS011;51482;47.014;7.652;2023-04-06T13:37:46;5.97;;;5.55;;
64950;SDS011;51482;47.014;7.652;2023-04-06T13:40:13;3.35;;;3.00;;
64950;SDS011;51482;47.014;7.652;2023-04-06T13:42:38;5.78;;;5.28;;
64950;SDS011;51482;47.014;7.652;2023-04-06T13:45:06;5.22;;;4.28;;
64950;SDS011;51482;47.014;7.652;2023-04-06T13:47:32;4.72;;;4.07;;
64950;SDS011;51482;47.014;7.652;2023-04-06T13:49:58;5.07;;;4.32;;
64950;SDS011;51482;47.014;7.652;2023-04-06T13:52:23;4.03;;;3.63;;
64950;SDS011;51482;47.014;7.652;2023-04-06T13:54:49;6.57;;;6.07;;
64950;SDS011;51482;47.014;7.652;2023-04-06T13:57:15;4.40;;;4.00;;
64950;SDS011;51482;47.014;7.652;2023-04-06T13:59:41;6.68;;;6.18;;
64950;SDS011;51482;47.014;7.652;2023-04-06T14:02:07;4.32;;;3.92;;
64950;SDS011;51482;47.014;7.652;2023-04-06T14:04:34;4.97;;;4.57;;
64950;SDS011;51482;47.014;7.652;2023-04-06T14:07:00;4.85;;;4.35;;
64950;SDS011;51482;47.014;7.652;2023-04-06T14:09:27;5.80;;;4.97;;
64950;SDS011;51482;47.014;7.652;2023-04-06T14:11:53;4.68;;;4.28;;
64950;SDS011;51482;47.014;7.652;2023-04-06T14:14:19;4.38;;;3.75;;
64950;SDS011;51482;47.014;7.652;2023-04-06T14:16:46;6.93;;;6.32;;
64950;SDS011;51482;47.014;7.652;2023-04-06T14:19:12;5.38;;;4.50;;
64950;SDS011;51482;47.014;7.652;2023-04-06T14:21:40;7.70;;;6.30;;
64950;SDS011;51482;47.014;7.652;2023-04-06T14:24:07;5.32;;;4.82;;
64950;SDS011;51482;47.014;7.652;2023-04-06T14:26:34;8.15;;;5.13;;
64950;SDS011;51482;47.014;7.652;2023-04-06T14:29:00;5.68;;;4.10;;
64950;SDS011;51482;47.014;7.652;2023-04-06T14:31:26;5.90;;;4.28;;
64950;SDS011;51482;47.014;7.652;2023-04-06T14:33:52;6.22;;;5.63;;
64950;SDS011;51482;47.014;7.652;2023-04-06T14:36:18;5.35;;;4.85;;
64950;SDS011;51482;47.014;7.652;2023-04-06T14:38:43;7.90;;;6.90;;
64950;SDS011;51482;47.014;7.652;2023-04-06T14:41:14;4.68;;;4.22;;
64950;SDS011;51482;47.014;7.652;2023-04-06T14:43:43;7.28;;;6.57;;
64950;SDS011;51482;47.014;7.652;2023-04-06T14:46:10;4.57;;;4.18;;
64950;SDS011;51482;47.014;7.652;2023-04-06T14:48:36;7.82;;;5.57;;